Aérodrome :
LOGIN :

S'inscrire | Disclaimer

   EN    FR    IT 

 










Légende :    VFR   VFR Marginal   IFR   IFR Intensif   IFR Très Intensif
Visi : 
Plafond : 
>= 8 km
>= 3000ft
5 à 8 km
1000 à 3000 ft
1500m à 5 km
500 à 1000 ft
800 à 1500m
200 à 500 ft
< 800m
< 200 ft
Symboles :   Orages  Brouillard  Fortes neiges  Fortes précipitations  Vent > 20 kt
SIGMETs :   Divers  Orages  Givrage  Turbulence  Onde Orograph.  Cendres Volcan.







- Altitude de l'aérodrome : 433 ft
- Code IATA : CCF
- Voir les cartes d'approche


LFMK - Carcassonne

DERNIER METAR :
  • 142100Z AUTO 26007KT CAVOK 20/13 Q1021

METARs EXPIRÉS :
  • 142030Z AUTO 26007KT CAVOK 21/14 Q1021
  • 142000Z AUTO 26006KT CAVOK 21/13 Q1020
  • 141930Z AUTO 26007KT 230V290 CAVOK 22/13 Q1020
  • 141900Z AUTO 27009KT 230V290 CAVOK 23/13 Q1020
  • 141830Z AUTO 28012KT CAVOK 24/13 Q1019 NOSIG
  • 141800Z AUTO 28015KT CAVOK 24/13 Q1019 TEMPO 28020G30KT

TAF TAF LFMK
Valide du 14 à 15h jusqu'au 15 à 15h UTC


141400Z 1415/1515 27012KT 9999 FEW060
TEMPO 1415/1419 28020G30KT
BECMG 1420/1422 CAVOK
Pas de NOTAMs connus pour ce terrain.



MET'MAP, la Météo Aéronautique d'un coup d'oeil ! - Copyright ORBIFLY Décembre 2007 - Disclaimer

ORBIFLY MET'MAP TEAM :

Programmation & Développement : Alexandra Zaïnal
Conception & Développement : Baudouin d'Aumeries
Co-Programmation & Développement : Marc-Olivier Méhu
Soutien technique & logistique : Manuel Goepfert

Contact : metmap@orbifly.com




SOURCES & CREDITS :

   NOAA